Charbonneau, Oregon
Current Conditions -  °F | °C
As of 9:32 AM on Thursday 23 Oct 2014 (Local Time) from KUAO Reporting Station
Overcast Overcast  
Wind Chill: 56°   Ceiling: 3600
Heat Index: 56°   Visibility: 10mi
Dew Point: 53°   Wind: 7mph
Humidity: 90%   Direction: 200°SSW
Pressure: 29.85"   Gusts: NA
Location:  45.309°N, 122.769°W
Report Text: KUAO 231632Z AUTO 20006KT 10SM FEW015 BKN036 OVC110 13/12 A2985 RMK AO2 T01330117
Loading
Personal Weather Stations






























Interactive Weather Map
Tropical Storm Tracking
New forecast layout! Learn more

10-Day Weather Forecast

Advertisements
Track Severe Weather on mobile